FBV2148 YMML-YSSY
Flight info
| Callsign | FBV2148 |
|---|---|
| Flight time | 1h 4m |
| Altitude | 31000 |
| Route | DOSEL2/34 DOSEL Y59 RIVET |
| Aircraft | B738/M-SDE2E3FGHIRWXY/LB1 |
Departure
| Time | 2026-05-04 08:10 |
|---|---|
| Airport | Melbourne Airport (YMML) |
Arrival
| Time | 2026-05-04 09:15 |
|---|---|
| Airport | Sydney Kingsford Smith International Airport (YSSY) |
| Time | Latitude | Longitude | Altitude | Speed | Heading |
|---|---|---|---|---|---|
| 2026-05-04 06:33 | -37.66682 | 144.84880 | 400 ft | 0 kts | 82° |
| 2026-05-04 07:49 | -37.66685 | 144.84857 | 398 ft | 9 kts | 68° |
| 2026-05-04 07:50 | -37.66724 | 144.84808 | 398 ft | 0 kts | 38° |
| 2026-05-04 07:50 | -37.66719 | 144.84812 | 397 ft | 3 kts | 31° |
| 2026-05-04 07:50 | -37.66710 | 144.84815 | 398 ft | 0 kts | 10° |
| 2026-05-04 07:51 | -37.66701 | 144.84814 | 399 ft | 4 kts | 355° |
| 2026-05-04 07:51 | -37.66651 | 144.84800 | 401 ft | 9 kts | 349° |
| 2026-05-04 07:51 | -37.66588 | 144.84802 | 403 ft | 9 kts | 10° |
| 2026-05-04 07:51 | -37.66549 | 144.84800 | 404 ft | 2 kts | 349° |
| 2026-05-04 07:52 | -37.66548 | 144.84800 | 404 ft | 0 kts | 348° |
| 2026-05-04 07:52 | -37.66543 | 144.84799 | 405 ft | 1 kts | 348° |
| 2026-05-04 07:53 | -37.66510 | 144.84788 | 406 ft | 10 kts | 344° |
| 2026-05-04 07:54 | -37.66406 | 144.83919 | 408 ft | 17 kts | 193° |
| 2026-05-04 07:55 | -37.66534 | 144.83952 | 402 ft | 21 kts | 180° |
| 2026-05-04 07:55 | -37.66642 | 144.83957 | 396 ft | 0 kts | 171° |
| 2026-05-04 07:56 | -37.66645 | 144.83957 | 396 ft | 2 kts | 171° |
| 2026-05-04 07:56 | -37.66687 | 144.83964 | 394 ft | 11 kts | 177° |
| 2026-05-04 07:56 | -37.66796 | 144.83983 | 391 ft | 20 kts | 171° |
| 2026-05-04 07:56 | -37.66958 | 144.84015 | 385 ft | 26 kts | 171° |
| 2026-05-04 07:57 | -37.67143 | 144.84049 | 380 ft | 27 kts | 171° |
| 2026-05-04 07:57 | -37.67307 | 144.84079 | 375 ft | 24 kts | 170° |
| 2026-05-04 07:57 | -37.67370 | 144.84091 | 374 ft | 0 kts | 171° |
| 2026-05-04 07:58 | -37.67371 | 144.84091 | 374 ft | 0 kts | 171° |
| 2026-05-04 08:04 | -37.67418 | 144.84100 | 372 ft | 16 kts | 171° |
| 2026-05-04 08:04 | -37.67547 | 144.84124 | 370 ft | 21 kts | 172° |
| 2026-05-04 08:04 | -37.67700 | 144.84153 | 364 ft | 22 kts | 171° |
| 2026-05-04 08:04 | -37.67764 | 144.84165 | 364 ft | 0 kts | 172° |
| 2026-05-04 08:05 | -37.67800 | 144.84171 | 361 ft | 9 kts | 172° |
| 2026-05-04 08:06 | -37.67806 | 144.84173 | 360 ft | 0 kts | 172° |
| 2026-05-04 08:06 | -37.67809 | 144.84173 | 366 ft | 2 kts | 172° |
| 2026-05-04 08:08 | -37.67837 | 144.83961 | 358 ft | 14 kts | 351° |
| 2026-05-04 08:08 | -37.67831 | 144.83960 | 358 ft | 0 kts | 352° |
| 2026-05-04 08:10 | -37.64349 | 144.83349 | 2077 ft | 186 kts | 351° |
| 2026-05-04 08:11 | -37.63056 | 144.83133 | 3147 ft | 187 kts | 345° |
| 2026-05-04 08:11 | -37.60284 | 144.82540 | 4383 ft | 214 kts | 345° |
| 2026-05-04 08:11 | -37.58754 | 144.82605 | 4903 ft | 228 kts | 8° |
| 2026-05-04 08:12 | -37.57237 | 144.83343 | 4987 ft | 239 kts | 17° |
| 2026-05-04 08:12 | -37.55737 | 144.84259 | 4998 ft | 238 kts | 18° |
| 2026-05-04 08:12 | -37.54252 | 144.85190 | 4981 ft | 239 kts | 19° |
| 2026-05-04 08:12 | -37.52760 | 144.86120 | 5006 ft | 239 kts | 18° |
| 2026-05-04 08:13 | -37.51258 | 144.87045 | 5034 ft | 241 kts | 18° |
| 2026-05-04 08:13 | -37.49747 | 144.87971 | 5530 ft | 244 kts | 18° |
| 2026-05-04 08:13 | -37.48212 | 144.88906 | 6212 ft | 248 kts | 19° |
| 2026-05-04 08:13 | -37.46601 | 144.89877 | 6550 ft | 265 kts | 19° |
| 2026-05-04 08:14 | -37.44907 | 144.90900 | 7265 ft | 273 kts | 19° |
| 2026-05-04 08:14 | -37.43315 | 144.92264 | 8157 ft | 288 kts | 43° |
| 2026-05-04 08:14 | -37.42492 | 144.93598 | 8748 ft | 293 kts | 48° |
| 2026-05-04 08:16 | -37.32947 | 145.10581 | 12547 ft | 382 kts | 50° |
| 2026-05-04 08:16 | -37.31400 | 145.13321 | 13292 ft | 387 kts | 50° |
| 2026-05-04 08:16 | -37.29830 | 145.16093 | 13976 ft | 392 kts | 50° |
| 2026-05-04 08:17 | -37.28240 | 145.18894 | 14645 ft | 395 kts | 50° |
| 2026-05-04 08:17 | -37.26639 | 145.21712 | 15345 ft | 398 kts | 50° |
| 2026-05-04 08:17 | -37.25049 | 145.24508 | 16001 ft | 401 kts | 50° |
| 2026-05-04 08:17 | -37.23419 | 145.27372 | 16649 ft | 405 kts | 50° |
| 2026-05-04 08:19 | -37.11623 | 145.47998 | 20737 ft | 427 kts | 50° |
| 2026-05-04 08:19 | -37.09883 | 145.51027 | 21265 ft | 430 kts | 50° |
| 2026-05-04 08:20 | -37.08128 | 145.54078 | 21790 ft | 432 kts | 49° |
| 2026-05-04 08:20 | -37.06369 | 145.57137 | 22371 ft | 433 kts | 49° |
| 2026-05-04 08:20 | -37.04604 | 145.60204 | 22892 ft | 436 kts | 49° |
| 2026-05-04 08:20 | -37.02824 | 145.63296 | 23345 ft | 439 kts | 49° |
| 2026-05-04 08:21 | -37.01029 | 145.66408 | 23742 ft | 443 kts | 48° |
| 2026-05-04 08:21 | -36.99219 | 145.69546 | 24127 ft | 446 kts | 48° |
| 2026-05-04 08:21 | -36.97400 | 145.72696 | 24516 ft | 448 kts | 47° |
| 2026-05-04 08:21 | -36.95596 | 145.75818 | 24891 ft | 450 kts | 47° |
| 2026-05-04 08:22 | -36.93755 | 145.78999 | 25256 ft | 453 kts | 46° |
| 2026-05-04 08:22 | -36.91915 | 145.82180 | 25781 ft | 451 kts | 46° |
| 2026-05-04 08:24 | -36.78709 | 146.04896 | 27910 ft | 471 kts | 45° |
| 2026-05-04 08:24 | -36.76779 | 146.08201 | 28343 ft | 470 kts | 45° |
| 2026-05-04 08:24 | -36.74851 | 146.11499 | 28734 ft | 470 kts | 45° |
| 2026-05-04 08:24 | -36.72924 | 146.14793 | 29069 ft | 471 kts | 45° |
| 2026-05-04 08:25 | -36.70993 | 146.18096 | 29465 ft | 471 kts | 44° |
| 2026-05-04 08:25 | -36.69066 | 146.21392 | 29929 ft | 470 kts | 44° |
| 2026-05-04 08:25 | -36.67144 | 146.24675 | 30334 ft | 468 kts | 44° |
| 2026-05-04 08:25 | -36.65223 | 146.27949 | 30635 ft | 469 kts | 44° |
| 2026-05-04 08:26 | -36.63294 | 146.31231 | 30911 ft | 470 kts | 44° |
| 2026-05-04 08:27 | -36.49751 | 146.54188 | 31024 ft | 473 kts | 45° |
| 2026-05-04 08:28 | -36.45849 | 146.60776 | 31016 ft | 473 kts | 45° |
| 2026-05-04 08:28 | -36.41945 | 146.67355 | 31028 ft | 473 kts | 45° |
| 2026-05-04 08:29 | -36.38034 | 146.73932 | 31026 ft | 474 kts | 45° |
| 2026-05-04 08:31 | -36.22359 | 147.00169 | 31034 ft | 473 kts | 45° |
| 2026-05-04 08:33 | -36.06664 | 147.26239 | 31024 ft | 473 kts | 44° |
| 2026-05-04 08:35 | -35.90903 | 147.52241 | 31063 ft | 473 kts | 44° |
| 2026-05-04 08:35 | -35.86952 | 147.58729 | 31062 ft | 473 kts | 44° |
| 2026-05-04 08:37 | -35.73133 | 147.81307 | 31063 ft | 471 kts | 43° |
| 2026-05-04 08:38 | -35.69184 | 147.87735 | 31075 ft | 470 kts | 43° |
| 2026-05-04 08:38 | -35.65236 | 147.94149 | 31045 ft | 470 kts | 43° |
| 2026-05-04 08:40 | -35.49426 | 148.19712 | 31058 ft | 470 kts | 42° |
| 2026-05-04 08:41 | -35.45467 | 148.26092 | 31073 ft | 469 kts | 42° |
| 2026-05-04 08:41 | -35.41503 | 148.32458 | 31092 ft | 470 kts | 42° |
| 2026-05-04 08:42 | -35.37512 | 148.38839 | 31086 ft | 472 kts | 42° |
| 2026-05-04 08:42 | -35.33512 | 148.45229 | 31068 ft | 473 kts | 42° |
| 2026-05-04 08:43 | -35.29506 | 148.51619 | 31068 ft | 473 kts | 43° |
| 2026-05-04 08:43 | -35.25494 | 148.58008 | 31074 ft | 473 kts | 43° |
| 2026-05-04 08:44 | -35.21474 | 148.64397 | 31046 ft | 473 kts | 43° |
| 2026-05-04 08:46 | -35.05414 | 148.89816 | 31048 ft | 472 kts | 43° |
| 2026-05-04 08:46 | -35.01395 | 148.96143 | 31063 ft | 471 kts | 43° |
| 2026-05-04 08:47 | -34.97373 | 149.02464 | 31070 ft | 471 kts | 43° |
| 2026-05-04 08:47 | -34.93353 | 149.08774 | 31060 ft | 471 kts | 43° |
| 2026-05-04 08:48 | -34.89359 | 149.15029 | 31031 ft | 469 kts | 44° |
| 2026-05-04 08:48 | -34.85343 | 149.21309 | 31074 ft | 473 kts | 43° |
| 2026-05-04 08:49 | -34.81285 | 149.27644 | 31078 ft | 476 kts | 43° |
| 2026-05-04 08:50 | -34.69962 | 149.47864 | 29987 ft | 494 kts | 55° |
| 2026-05-04 08:50 | -34.68429 | 149.51533 | 29145 ft | 492 kts | 55° |
| 2026-05-04 08:51 | -34.66880 | 149.55222 | 28556 ft | 486 kts | 54° |
| 2026-05-04 08:51 | -34.65339 | 149.58841 | 27951 ft | 479 kts | 54° |
| 2026-05-04 08:51 | -34.63800 | 149.62401 | 27375 ft | 472 kts | 54° |
| 2026-05-04 08:51 | -34.62270 | 149.65906 | 26829 ft | 466 kts | 54° |
| 2026-05-04 08:52 | -34.60755 | 149.69354 | 26259 ft | 460 kts | 54° |
| 2026-05-04 08:52 | -34.59253 | 149.72767 | 25720 ft | 455 kts | 53° |
| 2026-05-04 08:52 | -34.57768 | 149.76138 | 25191 ft | 451 kts | 53° |
| 2026-05-04 08:52 | -34.56294 | 149.79485 | 24659 ft | 447 kts | 53° |
| 2026-05-04 08:53 | -34.54835 | 149.82794 | 24125 ft | 444 kts | 53° |
| 2026-05-04 08:54 | -34.44952 | 150.05064 | 20425 ft | 409 kts | 49° |
| 2026-05-04 08:55 | -34.43095 | 150.07537 | 19921 ft | 388 kts | 30° |
| 2026-05-04 08:55 | -34.40790 | 150.09036 | 19469 ft | 368 kts | 11° |
| 2026-05-04 08:55 | -34.38348 | 150.09739 | 19035 ft | 354 kts | 5° |
| 2026-05-04 08:55 | -34.35957 | 150.10228 | 18613 ft | 343 kts | 3° |
| 2026-05-04 08:57 | -34.31339 | 150.25169 | 15023 ft | 370 kts | 137° |
| 2026-05-04 09:01 | -34.21278 | 150.58214 | 11076 ft | 348 kts | 56° |
| 2026-05-04 09:01 | -34.20172 | 150.60695 | 10879 ft | 331 kts | 55° |
| 2026-05-04 09:01 | -34.19100 | 150.63092 | 10717 ft | 318 kts | 56° |
| 2026-05-04 09:01 | -34.18064 | 150.65397 | 10576 ft | 308 kts | 56° |
| 2026-05-04 09:02 | -34.17037 | 150.67672 | 10463 ft | 309 kts | 55° |
| 2026-05-04 09:02 | -34.16003 | 150.69965 | 10333 ft | 309 kts | 56° |
| 2026-05-04 09:02 | -34.14997 | 150.72203 | 10178 ft | 296 kts | 56° |
| 2026-05-04 09:02 | -34.14021 | 150.74372 | 9948 ft | 294 kts | 55° |
| 2026-05-04 09:03 | -34.13029 | 150.76566 | 9690 ft | 298 kts | 55° |
| 2026-05-04 09:03 | -34.12041 | 150.78755 | 9421 ft | 296 kts | 55° |
| 2026-05-04 09:03 | -34.11068 | 150.80914 | 9158 ft | 290 kts | 55° |
| 2026-05-04 09:03 | -34.10120 | 150.83021 | 8891 ft | 280 kts | 54° |
| 2026-05-04 09:04 | -34.09204 | 150.85059 | 8634 ft | 274 kts | 54° |
| 2026-05-04 09:04 | -34.08301 | 150.87065 | 8387 ft | 271 kts | 54° |
| 2026-05-04 09:04 | -34.07398 | 150.89064 | 8139 ft | 271 kts | 54° |
| 2026-05-04 09:04 | -34.06499 | 150.91059 | 7893 ft | 271 kts | 55° |
| 2026-05-04 09:05 | -34.05600 | 150.93052 | 7643 ft | 270 kts | 55° |
| 2026-05-04 09:05 | -34.04705 | 150.95037 | 7388 ft | 269 kts | 54° |
| 2026-05-04 09:05 | -34.03827 | 150.96991 | 7159 ft | 268 kts | 54° |
| 2026-05-04 09:05 | -34.03108 | 150.99093 | 7021 ft | 281 kts | 76° |
| 2026-05-04 09:06 | -34.03316 | 151.01467 | 6992 ft | 293 kts | 110° |
| 2026-05-04 09:07 | -34.15373 | 151.09646 | 4421 ft | 303 kts | 170° |
| 2026-05-04 09:08 | -34.17444 | 151.10177 | 3802 ft | 306 kts | 169° |
| 2026-05-04 09:08 | -34.19525 | 151.10749 | 3267 ft | 306 kts | 162° |
| 2026-05-04 09:08 | -34.21274 | 151.12072 | 3054 ft | 291 kts | 128° |
| 2026-05-04 09:08 | -34.22105 | 151.14150 | 2990 ft | 265 kts | 93° |
| 2026-05-04 09:09 | -34.21944 | 151.16225 | 2986 ft | 237 kts | 70° |
| 2026-05-04 09:09 | -34.21425 | 151.18032 | 2978 ft | 225 kts | 58° |
| 2026-05-04 09:09 | -34.20555 | 151.19669 | 3008 ft | 235 kts | 44° |
| 2026-05-04 09:09 | -34.19375 | 151.20989 | 2998 ft | 228 kts | 28° |
| 2026-05-04 09:10 | -34.17985 | 151.21793 | 2985 ft | 217 kts | 13° |
| 2026-05-04 09:10 | -34.16557 | 151.22159 | 2973 ft | 208 kts | 3° |
| 2026-05-04 09:10 | -34.15166 | 151.22278 | 2903 ft | 193 kts | 359° |
| 2026-05-04 09:10 | -34.13860 | 151.22244 | 2775 ft | 184 kts | 353° |
| 2026-05-04 09:11 | -34.12591 | 151.22112 | 2625 ft | 184 kts | 353° |
| 2026-05-04 09:11 | -34.11311 | 151.21902 | 2478 ft | 187 kts | 349° |
| 2026-05-04 09:11 | -34.10032 | 151.21606 | 2350 ft | 188 kts | 349° |
| 2026-05-04 09:11 | -34.08773 | 151.21259 | 2188 ft | 182 kts | 347° |
| 2026-05-04 09:12 | -34.07561 | 151.20953 | 2017 ft | 175 kts | 349° |
| 2026-05-04 09:12 | -34.06381 | 151.20659 | 1803 ft | 171 kts | 349° |
| 2026-05-04 09:14 | -33.98777 | 151.18651 | 648 ft | 137 kts | 352° |
| 2026-05-04 09:14 | -33.97904 | 151.18431 | 366 ft | 123 kts | 352° |
| 2026-05-04 09:14 | -33.97121 | 151.18221 | 173 ft | 112 kts | 353° |
| 2026-05-04 09:14 | -33.96352 | 151.18050 | 73 ft | 107 kts | 353° |
| 2026-05-04 09:15 | -33.95622 | 151.17858 | 28 ft | 98 kts | 348° |
| 2026-05-04 09:15 | -33.95042 | 151.17706 | 26 ft | 66 kts | 347° |
| 2026-05-04 09:15 | -33.94687 | 151.17613 | 29 ft | 48 kts | 344° |
| 2026-05-04 09:15 | -33.94415 | 151.17450 | 29 ft | 39 kts | 323° |